createdAt,value
2016-09-04T00:00:47.534Z,19.71
2016-09-04T00:01:47.536Z,19.69
2016-09-04T00:02:47.537Z,19.7
2016-09-04T00:03:47.538Z,19.73
2016-09-04T00:04:47.606Z,19.62
2016-09-04T00:05:47.543Z,19.66
2016-09-04T00:06:47.542Z,19.62
2016-09-04T00:07:47.546Z,19.63
2016-09-04T00:08:47.553Z,19.63
2016-09-04T00:09:47.572Z,19.62
2016-09-04T00:10:47.552Z,19.63
2016-09-04T00:11:47.550Z,19.59
2016-09-04T00:12:47.554Z,19.62
2016-09-04T00:13:48.269Z,19.56
2016-09-04T00:14:47.572Z,19.64
2016-09-04T00:15:47.564Z,19.62
2016-09-04T00:16:47.568Z,19.56
2016-09-04T00:17:47.567Z,19.64
2016-09-04T00:18:47.574Z,19.55
2016-09-04T00:19:47.573Z,19.55
2016-09-04T00:20:47.571Z,19.52
2016-09-04T00:21:47.595Z,19.55
2016-09-04T00:22:47.573Z,19.55
2016-09-04T00:23:47.576Z,19.52
2016-09-04T00:24:47.596Z,19.49
2016-09-04T00:25:47.603Z,19.51
2016-09-04T00:26:47.581Z,19.47
2016-09-04T00:27:47.606Z,19.49
2016-09-04T00:28:47.607Z,19.49
2016-09-04T00:29:47.603Z,19.52
2016-09-04T00:30:47.628Z,19.49
2016-09-04T00:31:47.609Z,19.44
2016-09-04T00:32:47.616Z,19.52
2016-09-04T00:33:47.619Z,19.49
2016-09-04T00:34:47.622Z,19.45
2016-09-04T00:35:47.623Z,19.41
2016-09-04T00:36:47.620Z,19.45
2016-09-04T00:37:47.621Z,19.37
2016-09-04T00:38:47.616Z,19.33
2016-09-04T00:39:47.619Z,19.34
2016-09-04T00:40:47.619Z,19.34
2016-09-04T00:41:47.626Z,19.33
2016-09-04T00:42:47.632Z,19.27
2016-09-04T00:43:47.631Z,19.24
2016-09-04T00:44:47.625Z,19.39
2016-09-04T00:45:47.618Z,19.41
2016-09-04T00:46:47.637Z,19.3
2016-09-04T00:47:47.623Z,19.22
2016-09-04T00:48:48.346Z,19.24
2016-09-04T00:49:47.652Z,19.29
2016-09-04T00:50:47.632Z,19.26
2016-09-04T00:51:47.642Z,19.29
2016-09-04T00:52:47.634Z,19.27
2016-09-04T00:53:47.649Z,19.26
2016-09-04T00:54:47.652Z,19.19
2016-09-04T00:55:47.643Z,19.18
2016-09-04T00:56:47.646Z,19.18
2016-09-04T00:57:47.648Z,19.12
2016-09-04T00:58:47.657Z,19.15
2016-09-04T00:59:47.647Z,19.19
2016-09-04T01:00:47.657Z,19.16
2016-09-04T01:01:47.668Z,19.09
2016-09-04T01:02:47.666Z,19.14
2016-09-04T01:03:47.655Z,19.09
2016-09-04T01:04:47.722Z,19.04
2016-09-04T01:05:47.700Z,19.07
2016-09-04T01:06:47.731Z,19.04
2016-09-04T01:07:47.744Z,18.96
2016-09-04T01:08:47.676Z,18.96
2016-09-04T01:09:47.675Z,18.93
2016-09-04T01:10:47.677Z,18.93
2016-09-04T01:11:47.672Z,18.98
2016-09-04T01:12:47.683Z,18.95
2016-09-04T01:13:47.673Z,18.92
2016-09-04T01:14:47.703Z,18.95
2016-09-04T01:15:47.731Z,18.84
2016-09-04T01:16:47.691Z,18.84
2016-09-04T01:17:47.703Z,18.89
2016-09-04T01:18:47.703Z,18.92
2016-09-04T01:19:47.706Z,18.83
2016-09-04T01:20:47.717Z,18.81
2016-09-04T01:21:47.708Z,18.89
2016-09-04T01:22:47.708Z,18.84
2016-09-04T01:23:47.708Z,18.84
2016-09-04T01:24:47.707Z,18.8
2016-09-04T01:25:47.715Z,18.86
2016-09-04T01:26:47.717Z,18.74
2016-09-04T01:27:47.713Z,18.83
2016-09-04T01:28:47.724Z,18.66
2016-09-04T01:29:47.718Z,18.74
2016-09-04T01:30:47.717Z,18.73
2016-09-04T01:31:47.722Z,18.74
2016-09-04T01:32:47.724Z,18.68
2016-09-04T01:33:47.708Z,18.65
2016-09-04T01:34:47.727Z,18.65
2016-09-04T01:35:47.741Z,18.7
2016-09-04T01:36:47.734Z,18.7
2016-09-04T01:37:47.727Z,18.65
2016-09-04T01:38:47.730Z,18.6
2016-09-04T01:39:47.729Z,18.63
2016-09-04T01:40:47.732Z,18.62
2016-09-04T01:41:47.776Z,18.7
2016-09-04T01:42:47.784Z,18.62
2016-09-04T01:43:47.730Z,18.65
2016-09-04T01:44:48.429Z,18.56
2016-09-04T01:45:47.753Z,18.62
2016-09-04T01:46:47.735Z,18.52
2016-09-04T01:47:47.728Z,18.59
2016-09-04T01:48:47.739Z,18.47
2016-09-04T01:49:47.736Z,18.59
2016-09-04T01:50:47.734Z,18.53
2016-09-04T01:51:47.753Z,18.56
2016-09-04T01:52:47.751Z,18.41
2016-09-04T01:53:47.752Z,18.49
2016-09-04T01:54:47.751Z,18.47
2016-09-04T01:55:47.756Z,18.49
2016-09-04T01:56:47.754Z,18.37
2016-09-04T01:57:47.753Z,18.45
2016-09-04T01:58:47.766Z,18.4
2016-09-04T01:59:47.755Z,18.44
2016-09-04T02:00:47.764Z,18.38
2016-09-04T02:01:47.761Z,18.38
2016-09-04T02:02:47.767Z,18.4
2016-09-04T02:03:47.759Z,18.5
2016-09-04T02:04:47.769Z,18.4
2016-09-04T02:05:47.766Z,18.44
2016-09-04T02:06:47.763Z,18.37
2016-09-04T02:07:47.777Z,18.44
2016-09-04T02:08:47.767Z,18.41
2016-09-04T02:09:47.778Z,18.41
2016-09-04T02:10:47.792Z,18.37
2016-09-04T02:11:47.789Z,18.37
2016-09-04T02:12:47.791Z,18.37
2016-09-04T02:13:47.792Z,18.4
2016-09-04T02:14:47.781Z,18.37
2016-09-04T02:15:47.807Z,18.35
2016-09-04T02:16:47.839Z,18.37
2016-09-04T02:17:47.861Z,18.29
2016-09-04T02:18:47.806Z,18.29
2016-09-04T02:19:47.780Z,18.31
2016-09-04T02:20:47.786Z,18.34
2016-09-04T02:21:47.798Z,18.34
2016-09-04T02:22:47.807Z,18.23
2016-09-04T02:23:47.807Z,18.31
2016-09-04T02:24:47.810Z,18.28
2016-09-04T02:25:47.796Z,18.23
2016-09-04T02:26:47.805Z,18.29
2016-09-04T02:27:47.797Z,18.18
2016-09-04T02:28:47.809Z,18.2
2016-09-04T02:29:47.814Z,18.18
2016-09-04T02:30:47.820Z,18.08
2016-09-04T02:31:47.814Z,18.15
2016-09-04T02:32:47.805Z,18.05
2016-09-04T02:33:47.811Z,18.18
2016-09-04T02:34:47.811Z,18.04
2016-09-04T02:35:47.814Z,18.15
2016-09-04T02:36:47.819Z,18.08
2016-09-04T02:37:47.818Z,18.1
2016-09-04T02:38:47.820Z,18.19
2016-09-04T02:39:47.819Z,18.08
2016-09-04T02:40:47.823Z,18.15
2016-09-04T02:41:47.822Z,18.11
2016-09-04T02:42:47.810Z,18.19
2016-09-04T02:43:47.827Z,18.05
2016-09-04T02:44:47.822Z,18.16
2016-09-04T02:45:47.818Z,18.04
2016-09-04T02:46:47.823Z,18.07
2016-09-04T02:47:47.820Z,18.07
2016-09-04T02:48:47.823Z,18.03
2016-09-04T02:49:47.823Z,18.04
2016-09-04T02:50:47.825Z,18.08
2016-09-04T02:51:47.840Z,18.07
2016-09-04T02:52:47.835Z,18
2016-09-04T02:53:47.826Z,18.07
2016-09-04T02:54:47.838Z,18.08
2016-09-04T02:55:47.831Z,17.97
2016-09-04T02:56:48.547Z,18.04
2016-09-04T02:57:47.836Z,18.03
2016-09-04T02:58:47.836Z,17.97
2016-09-04T02:59:47.837Z,18.07
2016-09-04T03:00:47.856Z,18
2016-09-04T03:01:47.839Z,18.04
2016-09-04T03:02:47.843Z,18
2016-09-04T03:03:47.846Z,17.95
2016-09-04T03:04:47.892Z,17.89
2016-09-04T03:05:47.848Z,17.9
2016-09-04T03:06:47.859Z,18.07
2016-09-04T03:07:47.850Z,18.01
2016-09-04T03:08:47.871Z,17.97
2016-09-04T03:09:47.859Z,17.95
2016-09-04T03:10:47.855Z,17.92
2016-09-04T03:11:47.863Z,17.9
2016-09-04T03:12:47.860Z,17.98
2016-09-04T03:13:47.864Z,17.94
2016-09-04T03:14:47.865Z,17.97
2016-09-04T03:15:47.875Z,17.86
2016-09-04T03:16:47.866Z,17.98
2016-09-04T03:17:47.863Z,17.95
2016-09-04T03:18:47.870Z,17.92
2016-09-04T03:19:47.864Z,17.82
2016-09-04T03:20:47.871Z,17.94
2016-09-04T03:21:47.869Z,17.78
2016-09-04T03:22:47.872Z,17.83
2016-09-04T03:23:48.577Z,17.78
2016-09-04T03:24:47.875Z,17.79
2016-09-04T03:25:47.873Z,17.8
2016-09-04T03:26:47.875Z,17.76
2016-09-04T03:27:47.876Z,17.8
2016-09-04T03:28:47.878Z,17.79
2016-09-04T03:29:47.879Z,17.8
2016-09-04T03:30:47.883Z,17.79
2016-09-04T03:31:47.879Z,17.7
2016-09-04T03:32:47.885Z,17.71
2016-09-04T03:33:47.882Z,17.71
2016-09-04T03:34:47.885Z,17.71
2016-09-04T03:35:47.882Z,17.68
2016-09-04T03:36:47.890Z,17.72
2016-09-04T03:37:47.890Z,17.71
2016-09-04T03:38:47.904Z,17.76
2016-09-04T03:39:47.898Z,17.72
2016-09-04T03:40:47.897Z,17.76
2016-09-04T03:41:47.906Z,17.74
2016-09-04T03:42:47.896Z,17.76
2016-09-04T03:43:47.908Z,17.7
2016-09-04T03:44:47.908Z,17.7
2016-09-04T03:45:47.898Z,17.76
2016-09-04T03:46:47.912Z,17.76
2016-09-04T03:47:47.900Z,17.76
2016-09-04T03:48:47.911Z,17.74
2016-09-04T03:49:48.614Z,17.67
2016-09-04T03:50:47.915Z,17.68
2016-09-04T03:51:47.909Z,17.7
2016-09-04T03:52:47.905Z,17.63
2016-09-04T03:53:47.922Z,17.65
2016-09-04T03:54:48.624Z,17.68
2016-09-04T03:55:47.921Z,17.67
2016-09-04T03:56:47.928Z,17.65
2016-09-04T03:57:47.920Z,17.68
2016-09-04T03:58:47.926Z,17.71
2016-09-04T03:59:47.922Z,17.72
2016-09-04T04:00:47.929Z,17.7
2016-09-04T04:01:47.925Z,17.71
2016-09-04T04:02:47.921Z,17.71
2016-09-04T04:03:47.922Z,17.74
2016-09-04T04:04:48.022Z,17.71
2016-09-04T04:05:47.926Z,17.68
2016-09-04T04:06:47.938Z,17.67
2016-09-04T04:07:47.929Z,17.65
2016-09-04T04:08:47.930Z,17.63
2016-09-04T04:09:47.927Z,17.65
2016-09-04T04:10:47.928Z,17.65
2016-09-04T04:11:47.934Z,17.57
2016-09-04T04:12:47.930Z,17.6
2016-09-04T04:13:47.933Z,17.63
2016-09-04T04:14:47.932Z,17.6
2016-09-04T04:15:47.942Z,17.59
2016-09-04T04:16:47.935Z,17.56
2016-09-04T04:17:47.936Z,17.54
2016-09-04T04:18:47.938Z,17.44
2016-09-04T04:19:47.944Z,17.39
2016-09-04T04:20:47.940Z,17.36
2016-09-04T04:21:47.951Z,17.36
2016-09-04T04:22:47.941Z,17.36
2016-09-04T04:23:48.661Z,17.33
2016-09-04T04:24:47.953Z,17.36
2016-09-04T04:25:47.942Z,17.36
2016-09-04T04:26:48.001Z,17.38
2016-09-04T04:27:47.945Z,17.31
2016-09-04T04:28:47.952Z,17.36
2016-09-04T04:29:47.955Z,17.42
2016-09-04T04:30:47.954Z,17.31
2016-09-04T04:31:47.960Z,17.45
2016-09-04T04:32:47.959Z,17.39
2016-09-04T04:33:47.960Z,17.3
2016-09-04T04:34:47.962Z,17.38
2016-09-04T04:35:47.962Z,17.38
2016-09-04T04:36:47.959Z,17.34
2016-09-04T04:37:47.960Z,17.38
2016-09-04T04:38:47.967Z,17.33
2016-09-04T04:39:47.952Z,17.39
2016-09-04T04:40:47.957Z,17.38
2016-09-04T04:41:47.958Z,17.34
2016-09-04T04:42:47.957Z,17.31
2016-09-04T04:43:47.961Z,17.33
2016-09-04T04:44:47.957Z,17.31
2016-09-04T04:45:47.960Z,17.33
2016-09-04T04:46:47.968Z,17.3
2016-09-04T04:47:47.961Z,17.27
2016-09-04T04:48:47.966Z,17.23
2016-09-04T04:49:48.681Z,17.23
2016-09-04T04:50:47.966Z,17.22
2016-09-04T04:51:47.967Z,17.2
2016-09-04T04:52:47.968Z,17.23
2016-09-04T04:53:47.970Z,17.12
2016-09-04T04:54:47.966Z,17.15
2016-09-04T04:55:47.969Z,17.05
2016-09-04T04:56:47.969Z,17.12
2016-09-04T04:57:47.971Z,17.09
2016-09-04T04:58:47.966Z,17.04
2016-09-04T04:59:47.970Z,17.05
2016-09-04T05:00:47.967Z,17.04
2016-09-04T05:01:47.969Z,17.02
2016-09-04T05:02:47.974Z,17.04
2016-09-04T05:03:47.977Z,17.02
2016-09-04T05:04:47.972Z,17.04
2016-09-04T05:05:47.976Z,17.04
2016-09-04T05:06:47.973Z,17.12
2016-09-04T05:07:47.981Z,17.02
2016-09-04T05:08:47.986Z,17.06
2016-09-04T05:09:47.975Z,17.11
2016-09-04T05:10:47.978Z,17.06
2016-09-04T05:11:47.977Z,17.02
2016-09-04T05:12:47.977Z,17.15
2016-09-04T05:13:47.983Z,17.15
2016-09-04T05:14:47.978Z,17.34
2016-09-04T05:15:47.977Z,17.38
2016-09-04T05:16:47.980Z,17.36
2016-09-04T05:17:47.979Z,17.31
2016-09-04T05:18:47.982Z,17.39
2016-09-04T05:19:47.982Z,17.29
2016-09-04T05:20:47.986Z,17.33
2016-09-04T05:21:47.990Z,17.3
2016-09-04T05:22:47.985Z,17.34
2016-09-04T05:23:47.987Z,17.33
2016-09-04T05:24:48.033Z,17.45
2016-09-04T05:25:47.988Z,17.33
2016-09-04T05:26:47.990Z,17.34
2016-09-04T05:27:47.990Z,17.45
2016-09-04T05:28:47.993Z,17.39
2016-09-04T05:29:47.993Z,17.42
2016-09-04T05:30:48.001Z,17.41
2016-09-04T05:31:47.992Z,17.38
2016-09-04T05:32:48.000Z,17.38
2016-09-04T05:33:47.998Z,17.38
2016-09-04T05:34:47.999Z,17.49
2016-09-04T05:35:48.001Z,17.49
2016-09-04T05:36:48.002Z,17.51
2016-09-04T05:37:48.014Z,17.45
2016-09-04T05:38:48.004Z,17.49
2016-09-04T05:39:48.003Z,17.41
2016-09-04T05:40:48.005Z,17.36
2016-09-04T05:41:48.005Z,17.41
2016-09-04T05:42:48.005Z,17.44
2016-09-04T05:43:48.016Z,17.39
2016-09-04T05:44:48.010Z,17.38
2016-09-04T05:45:48.010Z,17.39
2016-09-04T05:46:48.022Z,17.41
2016-09-04T05:47:48.021Z,17.49
2016-09-04T05:48:48.025Z,17.48
2016-09-04T05:49:48.031Z,17.6
2016-09-04T05:50:48.094Z,17.59
2016-09-04T05:51:48.025Z,17.68
2016-09-04T05:52:48.031Z,17.65
2016-09-04T05:53:48.025Z,17.63
2016-09-04T05:54:48.026Z,17.6
2016-09-04T05:55:48.030Z,17.63
2016-09-04T05:56:48.049Z,17.64
2016-09-04T05:57:48.034Z,17.74
2016-09-04T05:58:48.026Z,17.79
2016-09-04T05:59:48.036Z,17.85
2016-09-04T06:00:48.035Z,17.89
2016-09-04T06:01:48.030Z,17.98
2016-09-04T06:02:48.038Z,17.97
2016-09-04T06:03:48.750Z,18.07
2016-09-04T06:04:48.293Z,18.1
2016-09-04T06:05:48.126Z,18.2
2016-09-04T06:06:48.046Z,18.31
2016-09-04T06:07:48.048Z,18.47
2016-09-04T06:08:48.044Z,18.44
2016-09-04T06:09:48.047Z,18.47
2016-09-04T06:10:48.052Z,18.53
2016-09-04T06:11:48.055Z,18.58
2016-09-04T06:12:48.051Z,18.66
2016-09-04T06:13:48.051Z,18.7
2016-09-04T06:14:48.053Z,18.75
2016-09-04T06:15:48.053Z,18.84
2016-09-04T06:16:48.056Z,18.81
2016-09-04T06:17:48.058Z,18.84
2016-09-04T06:18:48.060Z,18.93
2016-09-04T06:19:48.062Z,18.95
2016-09-04T06:20:48.068Z,18.95
2016-09-04T06:21:48.065Z,18.92
2016-09-04T06:22:48.074Z,19.02
2016-09-04T06:23:48.066Z,19.04
2016-09-04T06:24:48.070Z,18.99
2016-09-04T06:25:48.079Z,19.08
2016-09-04T06:26:48.085Z,19.22
2016-09-04T06:27:48.079Z,19.34
2016-09-04T06:28:48.082Z,19.47
2016-09-04T06:29:48.082Z,19.52
2016-09-04T06:30:48.085Z,19.54
2016-09-04T06:31:48.083Z,19.51
2016-09-04T06:32:48.088Z,19.63
2016-09-04T06:33:48.098Z,19.58
2016-09-04T06:34:48.094Z,19.84
2016-09-04T06:35:48.093Z,20.14
2016-09-04T06:36:48.804Z,20.34
2016-09-04T06:37:48.128Z,20.72
2016-09-04T06:38:48.103Z,20.72
2016-09-04T06:39:48.109Z,20.55
2016-09-04T06:40:48.108Z,20.43
2016-09-04T06:41:48.114Z,20.32
2016-09-04T06:42:48.111Z,20.32
2016-09-04T06:43:48.118Z,20.16
2016-09-04T06:44:48.121Z,20.03
2016-09-04T06:45:48.148Z,19.94
2016-09-04T06:46:48.126Z,20
2016-09-04T06:47:48.140Z,19.91
2016-09-04T06:48:48.149Z,19.84
2016-09-04T06:49:48.146Z,19.82
2016-09-04T06:50:48.133Z,19.84
2016-09-04T06:51:48.141Z,19.71
2016-09-04T06:52:48.142Z,19.69
2016-09-04T06:53:48.142Z,19.54
2016-09-04T06:54:48.152Z,19.59
2016-09-04T06:55:48.152Z,19.51
2016-09-04T06:56:48.152Z,19.49
2016-09-04T06:57:48.162Z,19.54
2016-09-04T06:58:48.156Z,19.54
2016-09-04T06:59:48.160Z,19.52
2016-09-04T07:00:48.161Z,19.58
2016-09-04T07:01:48.165Z,19.54
2016-09-04T07:02:48.168Z,19.69
2016-09-04T07:03:48.172Z,19.59
2016-09-04T07:04:48.226Z,19.63
2016-09-04T07:05:48.176Z,19.66
2016-09-04T07:06:48.888Z,19.71
2016-09-04T07:07:48.180Z,19.71
2016-09-04T07:08:48.181Z,19.67
2016-09-04T07:09:48.188Z,19.79
2016-09-04T07:10:48.188Z,19.81
2016-09-04T07:11:48.190Z,19.88
2016-09-04T07:12:48.188Z,19.86
2016-09-04T07:13:48.196Z,19.85
2016-09-04T07:14:48.201Z,19.92
2016-09-04T07:15:48.197Z,19.91
2016-09-04T07:16:48.233Z,20.02
2016-09-04T07:17:48.221Z,20.06
2016-09-04T07:18:48.217Z,20.04
2016-09-04T07:19:48.223Z,20.02
2016-09-04T07:20:48.222Z,20.13
2016-09-04T07:21:48.216Z,20.26
2016-09-04T07:22:48.224Z,20.29
2016-09-04T07:23:48.936Z,20.32
2016-09-04T07:24:48.226Z,20.31
2016-09-04T07:25:48.296Z,20.32
2016-09-04T07:26:48.243Z,20.32
2016-09-04T07:27:48.239Z,20.39
2016-09-04T07:28:48.236Z,20.43
2016-09-04T07:29:48.241Z,20.6
2016-09-04T07:30:48.319Z,20.7
2016-09-04T07:31:48.241Z,20.85
2016-09-04T07:32:48.245Z,21.17
2016-09-04T07:33:48.244Z,21.37
2016-09-04T07:34:48.255Z,21.5
2016-09-04T07:35:48.255Z,21.6
2016-09-04T07:36:48.255Z,21.64
2016-09-04T07:37:48.258Z,21.6
2016-09-04T07:38:48.262Z,21.57
2016-09-04T07:39:48.265Z,21.52
2016-09-04T07:40:48.293Z,21.58
2016-09-04T07:41:48.270Z,21.54
2016-09-04T07:42:48.299Z,21.48
2016-09-04T07:43:48.295Z,21.48
2016-09-04T07:44:48.292Z,21.48
2016-09-04T07:45:48.295Z,21.5
2016-09-04T07:46:48.305Z,21.43
2016-09-04T07:47:48.308Z,21.46
2016-09-04T07:48:48.309Z,21.4
2016-09-04T07:49:48.306Z,21.4
2016-09-04T07:50:48.312Z,21.36
2016-09-04T07:51:48.322Z,21.25
2016-09-04T07:52:48.312Z,21.29
2016-09-04T07:53:48.316Z,21.21
2016-09-04T07:54:48.317Z,21.25
2016-09-04T07:55:48.317Z,21.2
2016-09-04T07:56:48.321Z,21.14
2016-09-04T07:57:48.321Z,21.11
2016-09-04T07:58:48.328Z,21.07
2016-09-04T07:59:48.327Z,21.02
2016-09-04T08:00:48.333Z,20.96
2016-09-04T08:01:48.338Z,20.88
2016-09-04T08:02:48.339Z,20.87
2016-09-04T08:03:48.341Z,20.92
2016-09-04T08:04:48.343Z,20.84
2016-09-04T08:05:48.349Z,20.7
2016-09-04T08:06:48.354Z,20.7
2016-09-04T08:07:48.353Z,20.7
2016-09-04T08:08:48.359Z,20.65
2016-09-04T08:09:48.374Z,20.69
2016-09-04T08:10:48.361Z,20.69
2016-09-04T08:11:48.366Z,20.69
2016-09-04T08:12:48.368Z,20.77
2016-09-04T08:13:48.386Z,20.72
2016-09-04T08:14:48.374Z,20.9
2016-09-04T08:15:48.390Z,20.96
2016-09-04T08:16:48.388Z,20.97
2016-09-04T08:17:48.387Z,20.99
2016-09-04T08:18:48.387Z,21.09
2016-09-04T08:19:48.390Z,21.17
2016-09-04T08:20:48.392Z,21.25
2016-09-04T08:21:48.393Z,21.24
2016-09-04T08:22:48.405Z,21.22
2016-09-04T08:23:48.400Z,21.3
2016-09-04T08:24:48.398Z,21.25
2016-09-04T08:25:48.402Z,21.24
2016-09-04T08:26:48.442Z,21.29
2016-09-04T08:27:48.407Z,21.37
2016-09-04T08:28:48.421Z,21.39
2016-09-04T08:29:48.447Z,21.46
2016-09-04T08:30:48.419Z,21.46
2016-09-04T08:31:48.435Z,21.57
2016-09-04T08:32:48.424Z,21.58
2016-09-04T08:33:49.145Z,21.75
2016-09-04T08:34:48.431Z,21.8
2016-09-04T08:35:48.439Z,21.88
2016-09-04T08:36:48.438Z,21.99
2016-09-04T08:37:48.443Z,22.02
2016-09-04T08:38:48.443Z,22.18
2016-09-04T08:39:48.443Z,22.32
2016-09-04T08:40:48.449Z,22.45
2016-09-04T08:41:48.450Z,22.51
2016-09-04T08:42:48.463Z,22.57
2016-09-04T08:43:48.461Z,22.63
2016-09-04T08:44:48.460Z,22.75
2016-09-04T08:45:48.464Z,22.9
2016-09-04T08:46:48.469Z,22.84
2016-09-04T08:47:48.474Z,22.84
2016-09-04T08:48:48.490Z,22.98
2016-09-04T08:49:48.494Z,23
2016-09-04T08:50:48.484Z,22.98
2016-09-04T08:51:48.494Z,23.15
2016-09-04T08:52:48.497Z,23.1
2016-09-04T08:53:48.497Z,23.25
2016-09-04T08:54:48.498Z,23.47
2016-09-04T08:55:48.500Z,23.47
2016-09-04T08:56:48.507Z,23.51
2016-09-04T08:57:48.512Z,23.5
2016-09-04T08:58:48.512Z,23.51
2016-09-04T08:59:48.519Z,23.47
2016-09-04T09:00:48.726Z,23.39
2016-09-04T09:01:48.527Z,23.4
2016-09-04T09:02:48.532Z,23.48
2016-09-04T09:03:48.544Z,23.56
2016-09-04T09:04:48.594Z,23.65
2016-09-04T09:05:48.548Z,23.74
2016-09-04T09:06:48.543Z,23.8
2016-09-04T09:07:48.550Z,23.81
2016-09-04T09:08:48.553Z,23.66
2016-09-04T09:09:48.567Z,23.65
2016-09-04T09:10:48.563Z,23.62
2016-09-04T09:11:48.566Z,23.58
2016-09-04T09:12:48.569Z,23.55
2016-09-04T09:13:48.575Z,23.43
2016-09-04T09:14:48.589Z,23.37
2016-09-04T09:15:49.287Z,23.32
2016-09-04T09:16:48.595Z,23.31
2016-09-04T09:17:48.594Z,23.4
2016-09-04T09:18:48.603Z,23.31
2016-09-04T09:19:48.596Z,23.27
2016-09-04T09:20:48.597Z,23.25
2016-09-04T09:21:48.613Z,23.18
2016-09-04T09:22:48.608Z,23.21
2016-09-04T09:23:48.611Z,23.15
2016-09-04T09:24:48.626Z,23.12
2016-09-04T09:25:48.618Z,22.99
2016-09-04T09:26:48.621Z,22.96
2016-09-04T09:27:48.628Z,22.99
2016-09-04T09:28:49.338Z,23.03
2016-09-04T09:29:48.631Z,22.9
2016-09-04T09:30:48.638Z,23.08
2016-09-04T09:31:48.658Z,22.99
2016-09-04T09:32:48.643Z,22.91
2016-09-04T09:33:48.656Z,23.12
2016-09-04T09:34:48.660Z,23.1
2016-09-04T09:35:48.659Z,23.17
2016-09-04T09:36:48.660Z,23.17
2016-09-04T09:37:48.666Z,23.17
2016-09-04T09:38:48.666Z,23.12
2016-09-04T09:39:48.674Z,23.12
2016-09-04T09:40:48.682Z,23.09
2016-09-04T09:41:48.676Z,23.09
2016-09-04T09:42:48.681Z,22.94
2016-09-04T09:43:48.685Z,23.03
2016-09-04T09:44:48.691Z,23.06
2016-09-04T09:45:48.691Z,23.06
2016-09-04T09:46:48.697Z,23.17
2016-09-04T09:47:48.722Z,23.15
2016-09-04T09:48:48.708Z,23.1
2016-09-04T09:49:48.707Z,23.03
2016-09-04T09:50:48.718Z,22.94
2016-09-04T09:51:48.711Z,22.99
2016-09-04T09:52:48.716Z,22.99
2016-09-04T09:53:48.720Z,22.99
2016-09-04T09:54:48.724Z,22.99
2016-09-04T09:55:48.747Z,22.91
2016-09-04T09:56:48.733Z,22.88
2016-09-04T09:57:48.737Z,22.99
2016-09-04T09:58:48.743Z,22.9
2016-09-04T09:59:48.748Z,22.91
2016-09-04T10:00:48.744Z,22.84
2016-09-04T10:01:48.772Z,22.85
2016-09-04T10:02:48.753Z,22.81
2016-09-04T10:03:48.752Z,22.76
2016-09-04T10:04:48.908Z,22.85
2016-09-04T10:05:48.762Z,22.8
2016-09-04T10:06:48.972Z,22.84
2016-09-04T10:07:48.768Z,22.9
2016-09-04T10:08:48.773Z,22.87
2016-09-04T10:09:48.773Z,22.87
2016-09-04T10:10:48.783Z,22.9
2016-09-04T10:11:48.782Z,22.81
2016-09-04T10:12:48.784Z,22.81
2016-09-04T10:13:48.791Z,22.8
2016-09-04T10:14:48.794Z,22.75
2016-09-04T10:15:48.804Z,22.62
2016-09-04T10:16:49.517Z,22.63
2016-09-04T10:17:48.810Z,22.62
2016-09-04T10:18:48.805Z,22.62
2016-09-04T10:19:48.811Z,22.53
2016-09-04T10:20:48.812Z,22.45
2016-09-04T10:21:48.817Z,22.45
2016-09-04T10:22:48.837Z,22.45
2016-09-04T10:23:48.837Z,22.43
2016-09-04T10:24:48.837Z,22.29
2016-09-04T10:25:48.840Z,22.25
2016-09-04T10:26:48.836Z,22.26
2016-09-04T10:27:48.839Z,22.26
2016-09-04T10:28:48.845Z,22.33
2016-09-04T10:29:48.845Z,22.29
2016-09-04T10:30:48.915Z,22.32
2016-09-04T10:31:48.850Z,22.3
2016-09-04T10:32:48.854Z,22.33
2016-09-04T10:33:48.857Z,22.35
2016-09-04T10:34:48.864Z,22.36
2016-09-04T10:35:49.579Z,22.3
2016-09-04T10:36:48.871Z,22.28
2016-09-04T10:37:48.875Z,22.28
2016-09-04T10:38:48.875Z,22.3
2016-09-04T10:39:48.876Z,22.35
2016-09-04T10:40:48.880Z,22.36
2016-09-04T10:41:48.886Z,22.43
2016-09-04T10:42:48.888Z,22.55
2016-09-04T10:43:48.891Z,22.59
2016-09-04T10:44:48.897Z,22.62
2016-09-04T10:45:48.912Z,22.7
2016-09-04T10:46:48.908Z,22.62
2016-09-04T10:47:48.909Z,22.57
2016-09-04T10:48:48.918Z,22.53
2016-09-04T10:49:48.924Z,22.51
2016-09-04T10:50:48.916Z,22.5
2016-09-04T10:51:48.921Z,22.43
2016-09-04T10:52:48.922Z,22.43
2016-09-04T10:53:48.932Z,22.5
2016-09-04T10:54:48.927Z,22.33
2016-09-04T10:55:48.931Z,22.38
2016-09-04T10:56:49.652Z,22.43
2016-09-04T10:57:48.939Z,22.44
2016-09-04T10:58:49.671Z,22.47
2016-09-04T10:59:48.948Z,22.41
2016-09-04T11:00:48.956Z,22.53
2016-09-04T11:01:48.953Z,22.57
2016-09-04T11:02:48.963Z,22.59
2016-09-04T11:03:48.959Z,22.54
2016-09-04T11:04:48.966Z,22.57
2016-09-04T11:05:49.692Z,22.6
2016-09-04T11:06:48.972Z,22.62
2016-09-04T11:07:48.983Z,22.65
2016-09-04T11:08:48.982Z,22.68
2016-09-04T11:09:49.188Z,22.81
2016-09-04T11:10:48.987Z,22.83
2016-09-04T11:11:49.710Z,22.94
2016-09-04T11:12:48.997Z,22.94
2016-09-04T11:13:49.000Z,23.12
2016-09-04T11:14:49.001Z,23.12
2016-09-04T11:15:49.011Z,23.18
2016-09-04T11:16:49.017Z,23.13
2016-09-04T11:17:49.013Z,23.08
2016-09-04T11:18:49.018Z,23.08
2016-09-04T11:19:49.016Z,23.12
2016-09-04T11:20:49.020Z,23.21
2016-09-04T11:21:49.023Z,23.32
2016-09-04T11:22:49.030Z,23.4
2016-09-04T11:23:49.045Z,23.51
2016-09-04T11:24:49.046Z,23.56
2016-09-04T11:25:49.044Z,23.63
2016-09-04T11:26:49.056Z,23.74
2016-09-04T11:27:49.049Z,23.66
2016-09-04T11:28:49.068Z,23.71
2016-09-04T11:29:49.076Z,23.8
2016-09-04T11:30:49.066Z,23.71
2016-09-04T11:31:49.071Z,23.73
2016-09-04T11:32:49.078Z,23.77
2016-09-04T11:33:49.086Z,23.76
2016-09-04T11:34:49.090Z,23.78
2016-09-04T11:35:49.084Z,23.84
2016-09-04T11:36:49.086Z,23.96
2016-09-04T11:37:49.090Z,24.02
2016-09-04T11:38:49.095Z,24.21
2016-09-04T11:39:49.108Z,24.28
2016-09-04T11:40:49.103Z,24.3
2016-09-04T11:41:49.109Z,24.17
2016-09-04T11:42:49.114Z,24.16
2016-09-04T11:43:49.124Z,24.13
2016-09-04T11:44:49.119Z,24.01
2016-09-04T11:45:49.146Z,23.96
2016-09-04T11:46:49.126Z,24.01
2016-09-04T11:47:49.135Z,23.96
2016-09-04T11:48:49.143Z,24.02
2016-09-04T11:49:49.164Z,24.02
2016-09-04T11:50:49.154Z,24.02
2016-09-04T11:51:49.152Z,24.03
2016-09-04T11:52:49.155Z,24.02
2016-09-04T11:53:49.157Z,23.86
2016-09-04T11:54:49.167Z,23.92
2016-09-04T11:55:49.174Z,24.01
2016-09-04T11:56:49.175Z,24.11
2016-09-04T11:57:49.179Z,24.05
2016-09-04T11:58:49.188Z,23.87
2016-09-04T11:59:49.187Z,24.05
2016-09-04T12:00:49.196Z,24.05
2016-09-04T12:01:49.193Z,24.02
2016-09-04T12:02:49.198Z,24.13
2016-09-04T12:03:49.205Z,24.21
2016-09-04T12:04:49.272Z,24.33
2016-09-04T12:05:49.216Z,24.47
2016-09-04T12:06:49.234Z,24.55
2016-09-04T12:07:49.220Z,24.74
2016-09-04T12:08:49.233Z,24.86
2016-09-04T12:09:49.241Z,24.8
2016-09-04T12:10:49.233Z,25.01
2016-09-04T12:11:49.257Z,25.18
2016-09-04T12:12:49.243Z,25.33
2016-09-04T12:13:49.246Z,25.46
2016-09-04T12:14:49.259Z,25.4
2016-09-04T12:15:49.259Z,25.5
2016-09-04T12:16:49.265Z,25.65
2016-09-04T12:17:49.288Z,25.72
2016-09-04T12:18:49.278Z,25.69
2016-09-04T12:19:49.280Z,25.63
2016-09-04T12:20:49.282Z,25.63
2016-09-04T12:21:49.300Z,25.6
2016-09-04T12:22:49.305Z,25.62
2016-09-04T12:23:49.309Z,25.46
2016-09-04T12:24:49.311Z,25.48
2016-09-04T12:25:49.320Z,25.46
2016-09-04T12:26:49.324Z,25.51
2016-09-04T12:27:49.319Z,25.54
2016-09-04T12:28:49.321Z,25.54
2016-09-04T12:29:49.328Z,25.55
2016-09-04T12:30:49.333Z,25.46
2016-09-04T12:31:49.339Z,25.43
2016-09-04T12:32:49.353Z,25.43
2016-09-04T12:33:49.346Z,25.55
2016-09-04T12:34:49.367Z,25.48
2016-09-04T12:35:49.373Z,25.46
2016-09-04T12:36:49.396Z,25.46
2016-09-04T12:37:49.381Z,25.36
2016-09-04T12:38:49.373Z,25.28
2016-09-04T12:39:49.383Z,25.26
2016-09-04T12:40:49.390Z,25.14
2016-09-04T12:41:49.486Z,25.13
2016-09-04T12:42:49.430Z,25.25
2016-09-04T12:43:49.402Z,25.17
2016-09-04T12:44:49.413Z,25.16
2016-09-04T12:45:49.409Z,25.08
2016-09-04T12:46:49.420Z,25.14
2016-09-04T12:47:49.423Z,24.95
2016-09-04T12:48:49.427Z,24.92
2016-09-04T12:49:49.429Z,24.84
2016-09-04T12:50:49.430Z,24.89
2016-09-04T12:51:49.438Z,24.86
2016-09-04T12:52:49.441Z,24.88
2016-09-04T12:53:49.456Z,24.91
2016-09-04T12:54:49.455Z,25.03
2016-09-04T12:55:49.462Z,25.04